Time;durP1;ratioP1;P1;durP2;ratioP2;P2;SDS_P1;SDS_P2;PMS_P1;PMS_P2;Temp;Humidity;BMP_temperature;BMP_pressure;BME280_temperature;BME280_humidity;BME280_pressure;Samples;Min_cycle;Max_cycle;Signal;HPM_P1;HPM_P2
2021/05/10 00:00:36;;;;;;;4.38;1.90;;;17.20;99.90;;;;;;5074772;28;20035;-72
2021/05/10 00:03:02;;;;;;;2.00;1.65;;;17.30;99.90;;;;;;5081469;28;20483;-71
2021/05/10 00:05:27;;;;;;;2.40;1.73;;;17.30;99.90;;;;;;5075191;28;20100;-72
2021/05/10 00:07:53;;;;;;;2.10;1.58;;;17.50;99.90;;;;;;5071749;28;20039;-72
2021/05/10 00:10:20;;;;;;;2.17;1.88;;;17.60;99.90;;;;;;5071315;28;20511;-72
2021/05/10 00:12:46;;;;;;;1.92;1.70;;;17.70;99.90;;;;;;5070331;28;20032;-71
2021/05/10 00:15:12;;;;;;;1.90;1.70;;;17.80;99.90;;;;;;5070100;28;20024;-71
2021/05/10 00:17:38;;;;;;;2.88;1.60;;;17.90;99.90;;;;;;5071398;28;20032;-71
2021/05/10 00:20:04;;;;;;;2.58;1.90;;;17.90;99.90;;;;;;5073917;28;20043;-71
2021/05/10 00:22:30;;;;;;;3.15;1.70;;;17.90;99.90;;;;;;5081908;28;20515;-72
2021/05/10 00:24:55;;;;;;;2.03;1.73;;;18.00;99.90;;;;;;5071350;28;20033;-71
2021/05/10 00:27:21;;;;;;;2.30;1.55;;;18.00;99.90;;;;;;5071243;28;20029;-72
2021/05/10 00:29:47;;;;;;;2.45;1.70;;;18.10;99.90;;;;;;5069838;28;20020;-71
2021/05/10 00:32:12;;;;;;;1.80;1.70;;;18.20;99.90;;;;;;5071223;28;20028;-71
2021/05/10 00:34:38;;;;;;;2.28;1.95;;;18.20;99.90;;;;;;5069952;28;20036;-73
2021/05/10 00:37:03;;;;;;;2.45;1.70;;;18.30;99.90;;;;;;5080204;28;20383;-73
2021/05/10 00:39:29;;;;;;;3.45;1.70;;;18.20;99.90;;;;;;5077868;28;20397;-72
2021/05/10 00:41:56;;;;;;;4.18;1.98;;;18.00;99.90;;;;;;5091417;28;20020;-70
2021/05/10 00:44:22;;;;;;;5.68;1.90;;;18.00;99.90;;;;;;5091302;28;20024;-70
2021/05/10 00:46:51;;;;;;;2.20;2.00;;;17.60;99.90;;;;;;5091345;28;20403;-73
2021/05/10 00:49:17;;;;;;;2.33;1.90;;;17.10;99.90;;;;;;5093730;28;20052;-71
2021/05/10 00:51:42;;;;;;;2.15;1.95;;;16.90;99.90;;;;;;5093830;28;20043;-71
2021/05/10 00:54:08;;;;;;;2.08;1.88;;;16.80;99.90;;;;;;5095039;28;20727;-71
2021/05/10 00:56:34;;;;;;;3.90;2.10;;;16.70;99.90;;;;;;5095094;28;20435;-71
2021/05/10 00:58:59;;;;;;;4.15;1.88;;;16.60;99.90;;;;;;5093520;28;20430;-71
2021/05/10 01:01:25;;;;;;;2.40;2.10;;;16.50;99.90;;;;;;5094831;28;20020;-73
2021/05/10 01:03:53;;;;;;;2.20;1.70;;;16.50;99.90;;;;;;5077749;28;20055;-73
2021/05/10 01:06:19;;;;;;;2.30;2.10;;;16.60;99.90;;;;;;5074321;28;20565;-73
2021/05/10 01:08:45;;;;;;;4.72;1.95;;;16.60;99.90;;;;;;5073264;28;20028;-73
2021/05/10 01:11:10;;;;;;;3.72;2.35;;;16.50;99.90;;;;;;5074369;28;20388;-73
2021/05/10 01:13:36;;;;;;;2.38;2.03;;;16.30;99.90;;;;;;5074404;28;20029;-73
2021/05/10 01:16:02;;;;;;;2.38;2.10;;;16.20;99.90;;;;;;5074337;28;20035;-73
2021/05/10 01:18:27;;;;;;;2.35;1.88;;;16.10;99.90;;;;;;5073001;28;20029;-73
2021/05/10 01:20:55;;;;;;;2.72;2.10;;;16.00;99.90;;;;;;5072693;28;20509;-73
2021/05/10 01:23:21;;;;;;;2.10;1.90;;;15.90;99.90;;;;;;5074431;28;20047;-72
2021/05/10 01:25:47;;;;;;;2.00;1.80;;;15.90;99.90;;;;;;5074217;28;20055;-74
2021/05/10 01:28:13;;;;;;;3.53;2.30;;;15.70;99.90;;;;;;5074183;28;20064;-73
2021/05/10 01:30:41;;;;;;;4.00;2.50;;;15.40;99.90;;;;;;5084486;28;20062;-73
2021/05/10 01:33:08;;;;;;;4.68;2.17;;;15.40;99.90;;;;;;5077289;28;20391;-73
2021/05/10 01:35:38;;;;;;;2.53;2.10;;;15.30;99.90;;;;;;5084875;28;20020;-73
2021/05/10 01:38:05;;;;;;;2.33;2.13;;;15.30;99.90;;;;;;5092800;28;20110;-73
2021/05/10 01:40:31;;;;;;;3.15;2.20;;;15.30;99.90;;;;;;5092590;28;20030;-73
2021/05/10 01:42:58;;;;;;;2.42;2.22;;;15.30;99.90;;;;;;5094112;28;20025;-73
2021/05/10 01:45:24;;;;;;;2.50;2.03;;;15.30;99.90;;;;;;5094177;28;20099;-73
2021/05/10 01:47:59;;;;;;;2.28;2.08;;;15.30;99.90;;;;;;5094017;28;20486;-73
2021/05/10 01:50:25;;;;;;;2.50;2.30;;;15.00;99.90;;;;;;5081282;28;20040;-73
2021/05/10 01:52:51;;;;;;;3.50;2.20;;;14.90;99.90;;;;;;5085969;28;20032;-73
2021/05/10 01:55:17;;;;;;;2.70;2.50;;;14.90;99.90;;;;;;5086921;28;20387;-74
2021/05/10 01:57:50;;;;;;;2.78;2.08;;;14.40;99.90;;;;;;5092248;28;20471;-73
2021/05/10 02:00:21;;;;;;;3.28;2.45;;;14.30;99.90;;;;;;5092643;28;20081;-74
2021/05/10 02:02:46;;;;;;;2.90;2.30;;;14.20;99.90;;;;;;5073553;28;20028;-74
2021/05/10 02:05:13;;;;;;;2.60;2.17;;;14.20;99.90;;;;;;5073471;28;20098;-74
2021/05/10 02:07:51;;;;;;;3.40;2.28;;;14.20;99.90;;;;;;5073332;28;20028;-74
2021/05/10 02:10:33;;;;;;;2.55;2.13;;;14.40;99.90;;;;;;5089358;28;20384;-74
2021/05/10 02:13:03;;;;;;;2.50;2.30;;;14.30;99.90;;;;;;5092280;28;20065;-73
2021/05/10 02:15:33;;;;;;;2.70;2.50;;;14.10;99.90;;;;;;5093550;28;20035;-72
2021/05/10 02:17:59;;;;;;;3.45;2.42;;;14.20;99.90;;;;;;5092169;28;20032;-73
2021/05/10 02:20:26;;;;;;;2.50;2.30;;;14.20;99.90;;;;;;5091847;28;20020;-72
2021/05/10 02:23:20;;;;;;;2.70;2.50;;;14.10;99.90;;;;;;5093434;28;20471;-72
2021/05/10 02:25:51;;;;;;;3.80;2.25;;;14.00;99.90;;;;;;5092042;28;20032;-72
2021/05/10 02:28:19;;;;;;;2.35;2.15;;;13.90;99.90;;;;;;5089659;28;20025;-72
2021/05/10 02:30:46;;;;;;;2.70;2.50;;;13.90;99.90;;;;;;5083417;28;20028;-73
2021/05/10 02:33:15;;;;;;;2.70;2.50;;;13.80;99.90;;;;;;5074367;28;20031;-73
2021/05/10 02:35:42;;;;;;;3.78;2.47;;;13.70;99.90;;;;;;5084435;28;20028;-73
2021/05/10 02:38:08;;;;;;;4.00;2.65;;;13.80;99.90;;;;;;5077990;28;20032;-73
2021/05/10 02:40:33;;;;;;;2.28;2.15;;;14.00;99.90;;;;;;5081239;28;20024;-73
2021/05/10 02:42:59;;;;;;;2.58;2.38;;;14.10;99.90;;;;;;5090952;28;20027;-73
2021/05/10 02:45:25;;;;;;;3.03;2.72;;;13.90;99.90;;;;;;5093028;28;20016;-73
2021/05/10 02:47:51;;;;;;;2.40;2.20;;;13.80;99.90;;;;;;5092805;28;20069;-73
2021/05/10 02:50:19;;;;;;;3.58;2.47;;;13.70;99.90;;;;;;5091416;28;20027;-73
2021/05/10 02:52:49;;;;;;;2.78;2.53;;;13.60;99.90;;;;;;5087548;28;20549;-73
2021/05/10 02:55:15;;;;;;;3.88;2.80;;;13.50;99.90;;;;;;5085208;28;20028;-73
2021/05/10 02:57:41;;;;;;;3.50;2.80;;;13.60;99.90;;;;;;5079018;28;20023;-73
2021/05/10 03:00:15;;;;;;;2.42;2.15;;;13.60;99.90;;;;;;5078567;28;20047;-73
2021/05/10 03:02:41;;;;;;;2.78;2.53;;;13.60;99.90;;;;;;5079204;28;20077;-73
2021/05/10 03:05:08;;;;;;;3.05;2.60;;;13.50;99.90;;;;;;5077599;28;20021;-74
2021/05/10 03:07:35;;;;;;;2.83;2.45;;;13.40;99.90;;;;;;5077948;28;20054;-74
2021/05/10 03:10:01;;;;;;;3.03;2.83;;;13.20;99.90;;;;;;5092132;28;20058;-73
2021/05/10 03:12:28;;;;;;;4.20;2.63;;;13.30;99.90;;;;;;5091807;28;20035;-73
2021/05/10 03:14:53;;;;;;;3.13;2.72;;;13.30;99.90;;;;;;5091141;28;20476;-73
2021/05/10 03:17:19;;;;;;;4.03;2.60;;;13.30;99.90;;;;;;5085333;28;20039;-73
2021/05/10 03:19:44;;;;;;;2.70;2.50;;;13.10;99.90;;;;;;5071777;28;20032;-73
2021/05/10 03:22:10;;;;;;;3.53;2.80;;;13.20;99.90;;;;;;5078755;28;20016;-74
2021/05/10 03:24:36;;;;;;;4.00;3.10;;;13.10;99.90;;;;;;5078840;28;20027;-74
2021/05/10 03:27:02;;;;;;;4.22;2.60;;;13.30;99.90;;;;;;5077418;28;20372;-74
2021/05/10 03:29:27;;;;;;;4.50;2.75;;;13.20;99.90;;;;;;5078111;28;20070;-74
2021/05/10 03:31:53;;;;;;;4.90;2.95;;;13.30;99.90;;;;;;5070740;28;20021;-73
2021/05/10 03:34:18;;;;;;;3.20;2.63;;;13.20;99.90;;;;;;5084725;28;20024;-73
2021/05/10 03:36:44;;;;;;;3.55;3.10;;;13.10;99.90;;;;;;5070992;28;20036;-74
2021/05/10 03:39:10;;;;;;;2.95;2.70;;;13.00;99.90;;;;;;5070321;28;20120;-73
2021/05/10 03:41:35;;;;;;;3.30;3.00;;;13.10;99.90;;;;;;5076528;28;20020;-72
2021/05/10 03:44:01;;;;;;;3.17;2.85;;;13.10;99.90;;;;;;5092084;28;20020;-72
2021/05/10 03:46:26;;;;;;;3.72;2.80;;;13.00;99.90;;;;;;5084481;28;20860;-72
2021/05/10 03:48:52;;;;;;;4.63;3.22;;;13.00;99.90;;;;;;5071658;28;20024;-72
2021/05/10 03:51:18;;;;;;;4.45;3.00;;;13.10;99.90;;;;;;5071454;28;20387;-72
2021/05/10 03:53:43;;;;;;;3.60;3.30;;;13.10;99.90;;;;;;5085098;28;20024;-72
2021/05/10 03:56:10;;;;;;;2.95;2.70;;;12.80;99.90;;;;;;5071568;28;20448;-71
2021/05/10 03:58:36;;;;;;;3.63;3.13;;;13.00;99.90;;;;;;5071830;28;20491;-72
2021/05/10 04:01:02;;;;;;;3.70;3.40;;;13.20;99.90;;;;;;5084627;28;20054;-71
2021/05/10 04:03:33;;;;;;;5.82;3.58;;;13.20;99.90;;;;;;5071490;28;20109;-72
2021/05/10 04:09:06;;;;;;;3.78;3.42;;;13.10;99.90;;;;;;5091984;28;20441;-72
2021/05/10 04:14:15;;;;;;;7.72;3.72;;;13.10;99.90;;;;;;5080570;28;20108;-71
2021/05/10 04:16:41;;;;;;;3.25;2.70;;;13.30;99.90;;;;;;5074593;28;20092;-72
2021/05/10 04:19:07;;;;;;;4.10;2.90;;;13.40;99.90;;;;;;5071205;28;20090;-72
2021/05/10 04:21:32;;;;;;;3.35;2.60;;;13.70;99.90;;;;;;5069817;28;20021;-72
2021/05/10 04:23:58;;;;;;;6.97;3.38;;;13.70;99.90;;;;;;5075265;28;20396;-72
2021/05/10 04:26:23;;;;;;;4.63;2.88;;;13.80;99.90;;;;;;5075333;28;20392;-72
2021/05/10 04:28:49;;;;;;;4.38;3.25;;;13.90;99.90;;;;;;5080648;28;20400;-71
2021/05/10 04:31:14;;;;;;;4.28;2.90;;;14.00;99.90;;;;;;5083455;28;20024;-72
2021/05/10 04:33:40;;;;;;;3.30;3.00;;;14.10;99.90;;;;;;5083745;28;20440;-71
2021/05/10 04:36:06;;;;;;;3.40;3.10;;;14.30;99.90;;;;;;5078942;28;20499;-71
2021/05/10 04:38:32;;;;;;;3.67;3.05;;;14.40;99.90;;;;;;5083408;28;20024;-72
2021/05/10 04:40:59;;;;;;;3.05;2.40;;;14.50;99.90;;;;;;5078945;28;20495;-73
2021/05/10 04:43:25;;;;;;;3.28;2.97;;;14.50;99.90;;;;;;5075077;28;20102;-72
2021/05/10 04:45:51;;;;;;;3.20;2.80;;;14.50;99.90;;;;;;5074974;28;20484;-72
2021/05/10 04:48:16;;;;;;;3.30;3.08;;;14.50;99.90;;;;;;5081632;28;20114;-72
2021/05/10 04:50:42;;;;;;;4.07;2.83;;;14.30;99.90;;;;;;5082179;28;20028;-72
2021/05/10 04:53:12;;;;;;;4.43;3.10;;;14.10;99.90;;;;;;5086714;28;20054;-72
2021/05/10 04:55:38;;;;;;;5.75;3.03;;;14.30;99.90;;;;;;5090311;28;20032;-72
2021/05/10 04:58:03;;;;;;;6.40;2.97;;;14.50;99.90;;;;;;5085622;28;20112;-71
2021/05/10 05:00:29;;;;;;;3.53;2.72;;;14.70;99.90;;;;;;5074310;28;20107;-71
2021/05/10 05:02:54;;;;;;;4.18;2.70;;;14.70;99.90;;;;;;5074737;28;20056;-71
2021/05/10 05:05:20;;;;;;;3.15;2.65;;;14.60;99.90;;;;;;5074663;28;20029;-72
2021/05/10 05:07:46;;;;;;;3.38;3.00;;;14.70;99.90;;;;;;5074276;28;20391;-71
2021/05/10 05:10:12;;;;;;;3.47;2.60;;;14.80;99.90;;;;;;5074207;28;20103;-72
2021/05/10 05:12:38;;;;;;;3.15;2.85;;;14.90;99.90;;;;;;5074502;28;20030;-72
2021/05/10 05:15:08;;;;;;;3.42;2.80;;;15.00;99.90;;;;;;5086768;28;20059;-72
2021/05/10 05:17:35;;;;;;;3.70;2.80;;;15.20;99.90;;;;;;5074189;28;20040;-72
2021/05/10 05:20:02;;;;;;;6.25;2.88;;;15.10;99.90;;;;;;5074370;28;20417;-72
2021/05/10 05:22:27;;;;;;;5.40;3.00;;;15.20;99.90;;;;;;5073088;28;20052;-72
2021/05/10 05:24:56;;;;;;;3.10;2.80;;;15.30;99.90;;;;;;5074190;28;20164;-72
2021/05/10 05:27:22;;;;;;;4.47;2.80;;;15.40;99.90;;;;;;5074244;28;20044;-74
2021/05/10 05:29:47;;;;;;;3.50;2.72;;;15.40;99.90;;;;;;5077038;28;20067;-72
2021/05/10 05:32:13;;;;;;;4.35;2.85;;;15.60;99.90;;;;;;5084823;28;20488;-71
2021/05/10 05:34:38;;;;;;;3.47;2.70;;;15.70;99.90;;;;;;5089566;28;20067;-72
2021/05/10 05:37:04;;;;;;;2.85;2.63;;;15.80;99.90;;;;;;5094286;28;20487;-71
2021/05/10 05:39:29;;;;;;;2.72;2.53;;;15.70;99.90;;;;;;5093795;28;20027;-71
2021/05/10 05:41:55;;;;;;;5.28;2.85;;;15.70;99.90;;;;;;5094295;28;20399;-72
2021/05/10 05:44:20;;;;;;;2.65;2.45;;;15.90;99.90;;;;;;5094213;28;20052;-71
2021/05/10 05:46:50;;;;;;;3.60;2.30;;;16.20;99.90;;;;;;5094080;28;20024;-72
2021/05/10 05:49:16;;;;;;;5.13;2.70;;;16.40;99.90;;;;;;5092596;28;20581;-72
2021/05/10 05:51:45;;;;;;;3.28;2.60;;;16.70;99.90;;;;;;5093896;28;20110;-72
2021/05/10 05:54:12;;;;;;;2.80;2.60;;;16.90;99.90;;;;;;5076516;28;20104;-72
2021/05/10 05:56:38;;;;;;;3.55;2.40;;;17.10;99.90;;;;;;5073787;28;20024;-72
2021/05/10 05:59:04;;;;;;;5.25;2.65;;;17.30;99.90;;;;;;5073426;28;20357;-72
2021/05/10 06:01:29;;;;;;;3.70;2.40;;;17.40;99.90;;;;;;5084504;28;20522;-72
2021/05/10 06:03:55;;;;;;;3.75;2.67;;;17.60;99.90;;;;;;5090045;28;20456;-72
2021/05/10 06:06:20;;;;;;;3.15;2.55;;;17.60;99.90;;;;;;5073340;28;20032;-72
2021/05/10 06:08:46;;;;;;;2.17;1.98;;;17.60;99.90;;;;;;5072136;28;20019;-72
2021/05/10 06:11:12;;;;;;;2.15;1.90;;;17.70;99.90;;;;;;5073836;28;20484;-72
2021/05/10 06:13:37;;;;;;;2.25;1.90;;;17.70;99.90;;;;;;5087364;28;20085;-72
2021/05/10 06:16:04;;;;;;;2.30;2.10;;;17.80;99.90;;;;;;5073470;28;20504;-72
2021/05/10 06:18:30;;;;;;;3.55;1.80;;;17.90;99.90;;;;;;5076600;28;20044;-72
2021/05/10 06:20:59;;;;;;;4.70;1.92;;;18.10;99.90;;;;;;5084739;28;20039;-72
2021/05/10 06:23:25;;;;;;;5.55;2.10;;;18.20;99.90;;;;;;5073430;28;20028;-71
2021/05/10 06:25:51;;;;;;;3.17;2.05;;;18.20;99.90;;;;;;5083180;28;20024;-72
2021/05/10 06:28:16;;;;;;;7.25;2.80;;;18.20;99.90;;;;;;5092125;28;20032;-73
2021/05/10 06:30:42;;;;;;;3.70;2.20;;;18.30;99.90;;;;;;5082946;28;20050;-71
2021/05/10 06:33:07;;;;;;;2.60;2.00;;;18.40;99.90;;;;;;5073009;28;20036;-72
2021/05/10 06:35:32;;;;;;;4.05;1.90;;;18.40;99.90;;;;;;5072854;28;20024;-71
2021/05/10 06:37:58;;;;;;;4.10;1.77;;;18.40;99.90;;;;;;5076459;28;20028;-71
2021/05/10 06:40:23;;;;;;;5.93;2.20;;;18.40;99.90;;;;;;5081093;28;20021;-71
2021/05/10 06:42:49;;;;;;;6.25;2.55;;;18.50;99.90;;;;;;5074909;28;20020;-72
2021/05/10 06:45:15;;;;;;;3.42;2.13;;;18.60;99.90;;;;;;5081500;28;20020;-72
2021/05/10 06:47:42;;;;;;;5.20;2.35;;;18.70;99.90;;;;;;5072479;28;20090;-72
2021/05/10 06:50:09;;;;;;;3.65;1.90;;;18.70;99.90;;;;;;5082978;28;20285;-72
2021/05/10 06:52:35;;;;;;;3.97;2.05;;;18.80;99.90;;;;;;5087657;28;20024;-72
2021/05/10 06:55:01;;;;;;;2.25;2.00;;;19.10;99.90;;;;;;5072515;28;20369;-71
2021/05/10 06:57:26;;;;;;;2.85;1.98;;;19.30;99.90;;;;;;5072185;28;20024;-71
2021/05/10 06:59:52;;;;;;;2.88;2.10;;;19.40;99.90;;;;;;5072115;28;20020;-72
2021/05/10 07:02:20;;;;;;;3.00;1.95;;;19.50;99.90;;;;;;5089829;28;20074;-72
2021/05/10 07:04:46;;;;;;;3.40;2.10;;;19.70;99.90;;;;;;5092437;28;20013;-71
2021/05/10 07:07:12;;;;;;;4.95;2.25;;;19.70;99.90;;;;;;5092236;28;20084;-72
2021/05/10 07:09:37;;;;;;;4.38;2.10;;;19.70;99.90;;;;;;5092275;28;20084;-71
2021/05/10 07:12:04;;;;;;;3.38;2.17;;;19.90;99.90;;;;;;5092392;28;20027;-71
2021/05/10 07:14:30;;;;;;;2.67;1.75;;;19.90;99.90;;;;;;5091154;28;20016;-72
2021/05/10 07:16:55;;;;;;;4.97;2.00;;;19.90;99.90;;;;;;5092210;28;20020;-72
2021/05/10 07:19:21;;;;;;;6.28;2.30;;;20.00;99.90;;;;;;5091994;28;20046;-71
2021/05/10 07:21:47;;;;;;;2.47;1.92;;;20.00;99.90;;;;;;5092386;28;20047;-72
2021/05/10 07:24:12;;;;;;;3.28;2.00;;;20.10;99.90;;;;;;5092308;28;20479;-72
2021/05/10 07:26:38;;;;;;;3.15;2.20;;;20.20;99.90;;;;;;5092108;28;20085;-72
2021/05/10 07:29:05;;;;;;;5.38;1.95;;;20.20;99.90;;;;;;5091974;28;20032;-71
2021/05/10 07:31:31;;;;;;;5.40;1.95;;;20.20;99.90;;;;;;5090873;28;20024;-72
2021/05/10 07:33:56;;;;;;;4.55;2.75;;;20.40;99.90;;;;;;5092082;28;20110;-72
2021/05/10 07:36:22;;;;;;;3.35;2.08;;;20.50;99.90;;;;;;5091929;28;20395;-72
2021/05/10 07:38:48;;;;;;;2.35;1.90;;;20.70;99.90;;;;;;5091872;28;20522;-73
2021/05/10 07:41:13;;;;;;;6.22;2.30;;;20.80;99.90;;;;;;5088859;28;20033;-72
2021/05/10 07:43:39;;;;;;;4.00;1.70;;;21.00;99.90;;;;;;5071706;28;20025;-71
2021/05/10 07:46:05;;;;;;;3.83;2.10;;;21.20;99.90;;;;;;5071601;28;20476;-72
2021/05/10 07:48:30;;;;;;;2.88;1.92;;;21.10;99.90;;;;;;5071582;28;20032;-73
2021/05/10 07:50:56;;;;;;;4.70;2.55;;;21.20;99.90;;;;;;5074926;28;20031;-72
2021/05/10 07:53:21;;;;;;;4.18;2.20;;;21.10;99.90;;;;;;5081286;28;20020;-71
2021/05/10 07:55:49;;;;;;;3.90;2.47;;;21.20;99.90;;;;;;5084833;28;20020;-71
2021/05/10 07:58:19;;;;;;;3.00;2.15;;;21.20;99.90;;;;;;5081722;28;20098;-72
2021/05/10 08:00:45;;;;;;;6.55;2.20;;;21.20;99.90;;;;;;5091482;28;20053;-72
2021/05/10 08:03:15;;;;;;;5.25;2.17;;;21.20;99.90;;;;;;5079650;28;20115;-72
2021/05/10 08:05:43;;;;;;;4.15;2.10;;;21.20;99.90;;;;;;5071484;28;20013;-72
2021/05/10 08:08:12;;;;;;;5.82;1.90;;;21.30;99.90;;;;;;5071481;28;20028;-72
2021/05/10 08:10:38;;;;;;;5.82;2.00;;;21.50;99.90;;;;;;5090132;28;20055;-72
2021/05/10 08:13:04;;;;;;;4.75;2.70;;;21.80;99.90;;;;;;5079993;28;20060;-72
2021/05/10 08:15:29;;;;;;;4.13;2.30;;;22.00;99.90;;;;;;5071516;28;20062;-72
2021/05/10 08:17:55;;;;;;;4.63;2.47;;;22.30;99.90;;;;;;5071377;28;20024;-72
2021/05/10 08:20:20;;;;;;;6.43;2.20;;;22.30;99.90;;;;;;5075912;28;20028;-72
2021/05/10 08:22:46;;;;;;;4.03;1.98;;;22.20;99.90;;;;;;5080346;28;20429;-71
2021/05/10 08:25:13;;;;;;;8.70;3.20;;;22.30;99.90;;;;;;5071348;28;20040;-72
2021/05/10 08:27:39;;;;;;;3.33;2.28;;;22.40;99.90;;;;;;5082574;28;20055;-71
2021/05/10 08:30:07;;;;;;;3.25;1.80;;;22.50;99.90;;;;;;5073298;28;20036;-72
2021/05/10 08:32:33;;;;;;;6.82;2.08;;;22.50;99.90;;;;;;5071345;28;20044;-72
2021/05/10 08:34:59;;;;;;;4.07;2.28;;;22.80;99.90;;;;;;5084832;28;20484;-72
2021/05/10 08:37:24;;;;;;;2.83;2.30;;;22.90;99.90;;;;;;5071324;28;20493;-72
2021/05/10 08:39:50;;;;;;;4.05;2.15;;;23.10;99.90;;;;;;5070956;28;20033;-72
2021/05/10 08:42:17;;;;;;;5.18;2.35;;;23.30;99.90;;;;;;5082219;28;20510;-72
2021/05/10 08:44:43;;;;;;;2.20;1.92;;;23.40;99.90;;;;;;5076430;28;20028;-72
2021/05/10 08:47:08;;;;;;;4.80;1.88;;;23.60;99.90;;;;;;5080223;28;20052;-72
2021/05/10 08:49:34;;;;;;;2.25;1.90;;;23.70;99.80;;;;;;5070906;28;20495;-72
2021/05/10 08:52:00;;;;;;;1.98;1.58;;;23.50;99.30;;;;;;5071087;28;20062;-72
2021/05/10 08:54:26;;;;;;;3.35;1.90;;;23.50;98.60;;;;;;5084746;28;20016;-72
2021/05/10 08:56:53;;;;;;;3.08;2.17;;;23.60;98.70;;;;;;5071027;28;20017;-72
2021/05/10 08:59:20;;;;;;;5.70;2.20;;;23.90;98.90;;;;;;5071498;28;20059;-72
2021/05/10 09:01:47;;;;;;;5.38;2.20;;;24.00;99.70;;;;;;5069630;28;20025;-72
2021/05/10 09:04:12;;;;;;;4.00;1.98;;;23.90;97.90;;;;;;5069584;28;20104;-72
2021/05/10 09:06:38;;;;;;;9.98;2.72;;;23.80;98.80;;;;;;5070807;28;20119;-72
2021/05/10 09:09:09;;;;;;;6.32;2.35;;;24.00;99.90;;;;;;5090598;28;20031;-72
2021/05/10 09:11:51;;;;;;;4.35;2.05;;;24.10;99.60;;;;;;5093609;28;20027;-72
2021/05/10 09:14:29;;;;;;;4.20;2.03;;;24.10;98.20;;;;;;5094749;28;20483;-73
2021/05/10 09:16:55;;;;;;;2.30;1.63;;;24.20;99.20;;;;;;5094636;28;20078;-73
2021/05/10 09:19:20;;;;;;;5.53;1.92;;;24.30;99.00;;;;;;5094707;28;20020;-72
2021/05/10 09:21:56;;;;;;;4.68;1.80;;;24.50;97.20;;;;;;5091884;28;20037;-72
2021/05/10 09:24:24;;;;;;;3.20;2.03;;;24.50;97.40;;;;;;5073174;28;20075;-73
2021/05/10 09:26:49;;;;;;;4.00;2.03;;;24.30;92.60;;;;;;5074172;28;20025;-73
2021/05/10 09:29:25;;;;;;;4.95;2.30;;;23.90;92.00;;;;;;5074124;28;20033;-72
2021/05/10 09:31:51;;;;;;;3.38;2.13;;;23.70;93.60;;;;;;5092388;28;20027;-72
2021/05/10 09:34:16;;;;;;;5.07;2.42;;;23.70;94.80;;;;;;5081636;28;20099;-72
2021/05/10 09:36:42;;;;;;;2.83;1.75;;;23.70;95.30;;;;;;5087387;28;20036;-71
2021/05/10 09:39:27;;;;;;;4.05;1.85;;;24.00;94.80;;;;;;5086396;28;20035;-72
2021/05/10 09:42:02;;;;;;;4.60;2.00;;;24.10;94.50;;;;;;5094371;28;20491;-72
2021/05/10 09:44:44;;;;;;;4.72;2.00;;;24.20;93.80;;;;;;5076585;28;20021;-73
2021/05/10 09:47:09;;;;;;;2.17;1.70;;;24.30;94.40;;;;;;5073814;28;20039;-73
2021/05/10 09:49:49;;;;;;;3.30;1.83;;;24.00;92.20;;;;;;5087297;28;20016;-73
2021/05/10 09:52:23;;;;;;;4.03;1.80;;;23.90;93.30;;;;;;5085935;28;20025;-71
2021/05/10 09:55:00;;;;;;;3.13;1.65;;;23.90;93.40;;;;;;5072726;28;20074;-72
2021/05/10 09:57:26;;;;;;;3.58;1.80;;;23.90;93.40;;;;;;5077305;28;20050;-73
2021/05/10 10:00:15;;;;;;;4.93;2.20;;;24.40;96.70;;;;;;5083094;28;20089;-73
2021/05/10 10:02:41;;;;;;;5.13;1.77;;;24.30;94.80;;;;;;5080261;28;20058;-71
2021/05/10 10:05:10;;;;;;;3.47;2.22;;;24.50;93.10;;;;;;5080192;28;20052;-72
2021/05/10 10:07:40;;;;;;;4.60;1.90;;;24.50;96.30;;;;;;5079521;28;20036;-73
2021/05/10 10:10:07;;;;;;;3.10;1.88;;;24.40;97.40;;;;;;5074580;28;20029;-73
2021/05/10 10:12:33;;;;;;;3.92;1.90;;;24.50;93.50;;;;;;5085412;28;20031;-72
2021/05/10 10:14:59;;;;;;;2.97;2.03;;;24.60;94.80;;;;;;5073394;28;20068;-73
2021/05/10 10:17:26;;;;;;;2.92;2.08;;;24.90;95.60;;;;;;5073328;28;20040;-73
2021/05/10 10:19:54;;;;;;;3.15;1.83;;;24.90;97.40;;;;;;5072630;28;20035;-72
2021/05/10 10:22:25;;;;;;;4.50;2.15;;;25.10;94.90;;;;;;5073259;28;20029;-73
2021/05/10 10:24:54;;;;;;;3.50;2.10;;;25.00;94.10;;;;;;5073119;28;20122;-72
2021/05/10 10:27:22;;;;;;;4.07;2.10;;;24.90;97.50;;;;;;5083302;28;20044;-72
2021/05/10 10:29:49;;;;;;;3.63;1.90;;;25.10;95.00;;;;;;5089257;28;20655;-72
2021/05/10 10:32:21;;;;;;;3.70;2.22;;;25.30;94.00;;;;;;5073113;28;20107;-73
2021/05/10 10:34:47;;;;;;;4.80;2.13;;;25.40;95.40;;;;;;5077858;28;20035;-73
2021/05/10 10:37:15;;;;;;;3.97;2.10;;;25.20;93.30;;;;;;5081392;28;20028;-73
2021/05/10 10:39:57;;;;;;;3.15;2.30;;;25.20;94.90;;;;;;5076648;28;20043;-72
2021/05/10 10:42:27;;;;;;;3.78;1.73;;;25.50;93.80;;;;;;5078536;28;20508;-73
2021/05/10 10:44:55;;;;;;;3.10;2.30;;;25.40;93.90;;;;;;5080950;28;20488;-72
2021/05/10 10:47:45;;;;;;;2.80;1.90;;;24.90;93.80;;;;;;5077707;28;20031;-73
2021/05/10 10:50:16;;;;;;;4.13;2.00;;;25.00;91.10;;;;;;5084383;28;20020;-72
2021/05/10 10:52:57;;;;;;;6.60;2.25;;;25.30;90.60;;;;;;5087134;28;20028;-73
2021/05/10 10:55:30;;;;;;;4.40;2.08;;;25.40;91.40;;;;;;5086298;28;20103;-72
2021/05/10 10:58:14;;;;;;;3.53;2.20;;;25.40;92.00;;;;;;5079486;28;20062;-73
2021/05/10 11:01:21;;;;;;;5.35;2.25;;;25.50;92.00;;;;;;5073493;28;20024;-73
2021/05/10 11:03:48;;;;;;;4.32;2.13;;;25.70;90.30;;;;;;5088358;28;20027;-73
2021/05/10 11:06:14;;;;;;;3.63;1.98;;;26.00;90.60;;;;;;5092455;28;20055;-73
2021/05/10 11:08:40;;;;;;;2.33;2.10;;;25.70;90.80;;;;;;5089644;28;20029;-73
2021/05/10 11:11:10;;;;;;;7.85;2.40;;;25.60;90.90;;;;;;5072178;28;20021;-73
2021/05/10 11:13:44;;;;;;;3.85;2.40;;;26.20;92.60;;;;;;5075527;28;20028;-73
2021/05/10 11:16:15;;;;;;;2.90;2.30;;;26.10;88.90;;;;;;5079806;28;20024;-73
2021/05/10 11:18:48;;;;;;;4.13;2.10;;;26.30;91.70;;;;;;5072140;28;20021;-73
2021/05/10 11:21:22;;;;;;;3.45;2.05;;;26.60;92.60;;;;;;5071924;28;20379;-73
2021/05/10 11:23:54;;;;;;;3.67;1.75;;;26.40;91.60;;;;;;5072083;28;20031;-73
2021/05/10 11:26:39;;;;;;;4.78;2.03;;;26.30;92.40;;;;;;5073581;28;20021;-73
2021/05/10 11:29:29;;;;;;;4.03;2.03;;;26.20;91.00;;;;;;5080951;28;20024;-72
2021/05/10 11:32:18;;;;;;;2.47;2.00;;;26.80;91.50;;;;;;5091306;28;20116;-73
2021/05/10 11:34:45;;;;;;;2.65;2.25;;;27.30;90.90;;;;;;5075977;28;20103;-73
2021/05/10 11:37:11;;;;;;;2.30;2.10;;;26.80;90.70;;;;;;5081120;28;20066;-73
2021/05/10 11:39:38;;;;;;;3.33;2.20;;;26.30;87.70;;;;;;5071513;28;20032;-73
2021/05/10 11:42:06;;;;;;;3.97;2.85;;;26.40;87.70;;;;;;5081720;28;20020;-73
2021/05/10 11:44:40;;;;;;;4.28;1.80;;;26.80;86.50;;;;;;5078396;28;20379;-73
2021/05/10 11:47:11;;;;;;;4.18;1.98;;;27.40;86.50;;;;;;5090710;28;20074;-73
2021/05/10 11:49:50;;;;;;;4.03;2.15;;;27.20;84.00;;;;;;5084050;28;20031;-73
2021/05/10 11:52:24;;;;;;;3.28;2.05;;;27.20;85.20;;;;;;5085071;28;20020;-73
2021/05/10 11:54:51;;;;;;;3.05;2.13;;;26.80;83.70;;;;;;5080793;28;20384;-73
2021/05/10 11:57:22;;;;;;;4.28;2.30;;;27.30;91.10;;;;;;5073592;28;20506;-73
2021/05/10 11:59:50;;;;;;;2.70;2.13;;;27.40;87.10;;;;;;5068073;28;20025;-72
2021/05/10 12:02:18;;;;;;;2.70;2.15;;;27.60;90.00;;;;;;5071817;28;20044;-70
2021/05/10 12:04:54;;;;;;;2.78;2.45;;;28.00;85.20;;;;;;5080671;28;20016;-70
2021/05/10 12:07:21;;;;;;;;;;;27.90;84.10;;;;;;5072652;28;20039;-73
2021/05/10 12:09:56;;;;;;;3.30;2.30;;;27.70;88.10;;;;;;5083317;28;19904;-71
2021/05/10 12:12:28;;;;;;;4.03;1.92;;;27.30;82.60;;;;;;5071440;28;20028;-73
2021/05/10 12:14:56;;;;;;;2.58;2.35;;;27.50;87.80;;;;;;5083463;28;20024;-72
2021/05/10 12:17:24;;;;;;;4.55;2.20;;;27.20;85.40;;;;;;5078278;28;20116;-72
2021/05/10 12:19:54;;;;;;;3.72;2.22;;;26.50;88.00;;;;;;5085765;28;20441;-72
2021/05/10 12:22:26;;;;;;;2.92;2.20;;;26.50;91.20;;;;;;5074176;28;20480;-72
2021/05/10 12:24:59;;;;;;;3.22;2.28;;;26.80;90.20;;;;;;5079355;28;20077;-72
2021/05/10 12:27:30;;;;;;;4.20;2.58;;;27.00;91.30;;;;;;5071159;28;20021;-73
2021/05/10 12:29:56;;;;;;;3.65;2.20;;;27.10;90.80;;;;;;5070530;28;20103;-72
2021/05/10 12:32:22;;;;;;;3.13;2.30;;;27.10;92.60;;;;;;5069906;28;20020;-72
2021/05/10 12:34:50;;;;;;;2.88;2.25;;;27.30;90.80;;;;;;5069475;28;20094;-73
2021/05/10 12:37:15;;;;;;;5.45;2.50;;;27.30;90.70;;;;;;5070055;28;20511;-72
2021/05/10 12:39:41;;;;;;;3.15;2.40;;;27.30;90.20;;;;;;5070007;28;20024;-73
2021/05/10 12:42:12;;;;;;;3.50;2.40;;;26.80;90.70;;;;;;5070937;28;20047;-72
2021/05/10 12:44:38;;;;;;;4.10;2.47;;;27.00;90.90;;;;;;5074335;28;20022;-71
2021/05/10 12:47:03;;;;;;;4.15;2.38;;;26.90;90.00;;;;;;5072495;28;20020;-72
2021/05/10 12:49:30;;;;;;;2.92;2.25;;;26.80;91.70;;;;;;5073269;28;20044;-72
2021/05/10 12:51:55;;;;;;;3.30;2.22;;;26.90;90.10;;;;;;5086120;28;20433;-72
2021/05/10 12:54:21;;;;;;;2.63;2.40;;;26.70;88.40;;;;;;5075631;28;20024;-72
2021/05/10 12:56:46;;;;;;;5.35;2.33;;;26.60;90.20;;;;;;5073757;28;20081;-72